sensor_id;sensor_type;location;lat;lon;timestamp;temperature;humidity
78731;SHT31;68055;51.978;5.658;2023-03-21T00:01:41;13.4;69.9
78731;SHT31;68055;51.978;5.658;2023-03-21T00:04:11;13.4;70.1
78731;SHT31;68055;51.978;5.658;2023-03-21T00:06:40;13.4;70.2
78731;SHT31;68055;51.978;5.658;2023-03-21T00:09:10;13.4;70.2
78731;SHT31;68055;51.978;5.658;2023-03-21T00:11:40;13.4;70.1
78731;SHT31;68055;51.978;5.658;2023-03-21T00:14:09;13.4;70.2
78731;SHT31;68055;51.978;5.658;2023-03-21T00:16:43;13.4;70.3
78731;SHT31;68055;51.978;5.658;2023-03-21T00:19:17;13.4;70.4
78731;SHT31;68055;51.978;5.658;2023-03-21T00:21:47;13.4;70.2
78731;SHT31;68055;51.978;5.658;2023-03-21T00:24:18;13.4;70.4
78731;SHT31;68055;51.978;5.658;2023-03-21T00:26:49;13.3;70.8
78731;SHT31;68055;51.978;5.658;2023-03-21T00:29:19;13.3;70.7
78731;SHT31;68055;51.978;5.658;2023-03-21T00:31:49;13.3;71.0
78731;SHT31;68055;51.978;5.658;2023-03-21T00:34:18;13.3;70.9
78731;SHT31;68055;51.978;5.658;2023-03-21T00:36:48;13.3;71.0
78731;SHT31;68055;51.978;5.658;2023-03-21T00:39:18;13.3;71.0
78731;SHT31;68055;51.978;5.658;2023-03-21T00:41:48;13.3;70.5
78731;SHT31;68055;51.978;5.658;2023-03-21T00:44:18;13.3;70.5
78731;SHT31;68055;51.978;5.658;2023-03-21T00:46:50;13.3;70.7
78731;SHT31;68055;51.978;5.658;2023-03-21T00:49:19;13.3;70.7
78731;SHT31;68055;51.978;5.658;2023-03-21T00:51:49;13.3;70.9
78731;SHT31;68055;51.978;5.658;2023-03-21T00:54:20;13.2;71.0
78731;SHT31;68055;51.978;5.658;2023-03-21T00:56:49;13.2;70.7
78731;SHT31;68055;51.978;5.658;2023-03-21T00:59:19;13.2;70.7
78731;SHT31;68055;51.978;5.658;2023-03-21T01:01:49;13.2;70.9
78731;SHT31;68055;51.978;5.658;2023-03-21T01:04:20;13.2;70.8
78731;SHT31;68055;51.978;5.658;2023-03-21T01:06:54;13.2;70.9
78731;SHT31;68055;51.978;5.658;2023-03-21T01:09:23;13.2;70.4
78731;SHT31;68055;51.978;5.658;2023-03-21T01:11:53;13.2;70.8
78731;SHT31;68055;51.978;5.658;2023-03-21T01:14:23;13.2;71.0
78731;SHT31;68055;51.978;5.658;2023-03-21T01:16:55;13.2;70.8
78731;SHT31;68055;51.978;5.658;2023-03-21T01:19:25;13.2;70.4
78731;SHT31;68055;51.978;5.658;2023-03-21T01:21:55;13.2;70.5
78731;SHT31;68055;51.978;5.658;2023-03-21T01:24:25;13.2;70.7
78731;SHT31;68055;51.978;5.658;2023-03-21T01:26:54;13.2;70.5
78731;SHT31;68055;51.978;5.658;2023-03-21T01:29:26;13.2;70.2
78731;SHT31;68055;51.978;5.658;2023-03-21T01:31:56;13.2;70.2
78731;SHT31;68055;51.978;5.658;2023-03-21T01:34:25;13.2;70.4
78731;SHT31;68055;51.978;5.658;2023-03-21T01:36:55;13.2;70.2
78731;SHT31;68055;51.978;5.658;2023-03-21T01:39:25;13.3;70.2
78731;SHT31;68055;51.978;5.658;2023-03-21T01:41:55;13.3;69.9
78731;SHT31;68055;51.978;5.658;2023-03-21T01:44:25;13.4;69.9
78731;SHT31;68055;51.978;5.658;2023-03-21T01:46:55;13.6;69.2
78731;SHT31;68055;51.978;5.658;2023-03-21T01:49:28;13.6;68.2
78731;SHT31;68055;51.978;5.658;2023-03-21T01:52:04;13.6;68.3
78731;SHT31;68055;51.978;5.658;2023-03-21T01:54:37;13.6;67.9
78731;SHT31;68055;51.978;5.658;2023-03-21T01:57:12;13.6;67.9
78731;SHT31;68055;51.978;5.658;2023-03-21T01:59:45;13.6;68.1
78731;SHT31;68055;51.978;5.658;2023-03-21T02:02:21;13.6;68.3
78731;SHT31;68055;51.978;5.658;2023-03-21T02:04:53;13.5;68.5
78731;SHT31;68055;51.978;5.658;2023-03-21T02:07:28;13.5;68.3
78731;SHT31;68055;51.978;5.658;2023-03-21T02:10:00;13.5;68.7
78731;SHT31;68055;51.978;5.658;2023-03-21T02:12:31;13.4;68.9
78731;SHT31;68055;51.978;5.658;2023-03-21T02:15:03;13.4;68.9
78731;SHT31;68055;51.978;5.658;2023-03-21T02:17:39;13.4;69.0
78731;SHT31;68055;51.978;5.658;2023-03-21T02:22:21;13.4;69.0
78731;SHT31;68055;51.978;5.658;2023-03-21T02:27:10;13.3;69.2
78731;SHT31;68055;51.978;5.658;2023-03-21T02:30:37;13.3;69.3
78731;SHT31;68055;51.978;5.658;2023-03-21T02:33:30;13.3;69.6
78731;SHT31;68055;51.978;5.658;2023-03-21T02:37:33;13.3;69.6
78731;SHT31;68055;51.978;5.658;2023-03-21T02:40:11;13.3;69.7
78731;SHT31;68055;51.978;5.658;2023-03-21T02:42:54;13.2;69.7
78731;SHT31;68055;51.978;5.658;2023-03-21T02:45:37;13.2;69.8
78731;SHT31;68055;51.978;5.658;2023-03-21T02:48:12;13.2;70.1
78731;SHT31;68055;51.978;5.658;2023-03-21T02:50:48;13.2;70.1
78731;SHT31;68055;51.978;5.658;2023-03-21T02:53:24;13.2;69.9
78731;SHT31;68055;51.978;5.658;2023-03-21T02:55:55;13.3;70.0
78731;SHT31;68055;51.978;5.658;2023-03-21T02:58:27;13.3;69.9
78731;SHT31;68055;51.978;5.658;2023-03-21T03:00:58;13.3;69.8
78731;SHT31;68055;51.978;5.658;2023-03-21T03:03:28;13.3;69.7
78731;SHT31;68055;51.978;5.658;2023-03-21T03:06:02;13.3;69.6
78731;SHT31;68055;51.978;5.658;2023-03-21T03:08:44;13.3;69.8
78731;SHT31;68055;51.978;5.658;2023-03-21T03:11:24;13.3;69.9
78731;SHT31;68055;51.978;5.658;2023-03-21T03:14:10;13.3;69.9
78731;SHT31;68055;51.978;5.658;2023-03-21T03:16:54;13.3;70.0
78731;SHT31;68055;51.978;5.658;2023-03-21T03:19:28;13.3;69.8
78731;SHT31;68055;51.978;5.658;2023-03-21T03:22:08;13.2;69.7
78731;SHT31;68055;51.978;5.658;2023-03-21T03:24:48;13.2;69.9
78731;SHT31;68055;51.978;5.658;2023-03-21T03:27:25;13.2;70.1
78731;SHT31;68055;51.978;5.658;2023-03-21T03:29:59;13.2;70.2
78731;SHT31;68055;51.978;5.658;2023-03-21T03:32:35;13.2;69.9
78731;SHT31;68055;51.978;5.658;2023-03-21T03:35:06;13.2;69.9
78731;SHT31;68055;51.978;5.658;2023-03-21T03:37:38;13.2;69.8
78731;SHT31;68055;51.978;5.658;2023-03-21T03:40:12;13.2;69.9
78731;SHT31;68055;51.978;5.658;2023-03-21T03:42:48;13.2;70.0
78731;SHT31;68055;51.978;5.658;2023-03-21T03:45:24;13.2;69.9
78731;SHT31;68055;51.978;5.658;2023-03-21T03:48:03;13.1;70.0
78731;SHT31;68055;51.978;5.658;2023-03-21T03:50:39;13.1;70.0
78731;SHT31;68055;51.978;5.658;2023-03-21T03:53:18;13.1;69.8
78731;SHT31;68055;51.978;5.658;2023-03-21T03:55:50;13.1;69.6
78731;SHT31;68055;51.978;5.658;2023-03-21T03:58:22;13.1;69.8
78731;SHT31;68055;51.978;5.658;2023-03-21T04:00:54;13.1;69.7
78731;SHT31;68055;51.978;5.658;2023-03-21T04:03:24;13.1;69.7
78731;SHT31;68055;51.978;5.658;2023-03-21T04:05:53;13.1;69.8
78731;SHT31;68055;51.978;5.658;2023-03-21T04:08:23;13.1;69.6
78731;SHT31;68055;51.978;5.658;2023-03-21T04:10:53;13.1;69.4
78731;SHT31;68055;51.978;5.658;2023-03-21T04:13:23;13.2;69.2
78731;SHT31;68055;51.978;5.658;2023-03-21T04:15:52;13.2;69.2
78731;SHT31;68055;51.978;5.658;2023-03-21T04:18:22;13.2;69.2
78731;SHT31;68055;51.978;5.658;2023-03-21T04:20:51;13.2;69.3
78731;SHT31;68055;51.978;5.658;2023-03-21T04:23:23;13.2;69.2
78731;SHT31;68055;51.978;5.658;2023-03-21T04:25:52;13.2;69.3
78731;SHT31;68055;51.978;5.658;2023-03-21T04:28:22;13.2;69.2
78731;SHT31;68055;51.978;5.658;2023-03-21T04:30:52;13.3;69.0
78731;SHT31;68055;51.978;5.658;2023-03-21T04:33:24;13.4;68.4
78731;SHT31;68055;51.978;5.658;2023-03-21T04:35:54;13.5;68.1
78731;SHT31;68055;51.978;5.658;2023-03-21T04:38:25;13.5;67.7
78731;SHT31;68055;51.978;5.658;2023-03-21T04:40:57;13.5;67.5
78731;SHT31;68055;51.978;5.658;2023-03-21T04:43:27;13.5;67.2
78731;SHT31;68055;51.978;5.658;2023-03-21T04:45:57;13.5;67.1
78731;SHT31;68055;51.978;5.658;2023-03-21T04:48:27;13.5;67.1
78731;SHT31;68055;51.978;5.658;2023-03-21T04:50:58;13.5;67.1
78731;SHT31;68055;51.978;5.658;2023-03-21T04:53:28;13.4;67.1
78731;SHT31;68055;51.978;5.658;2023-03-21T04:55:57;13.4;67.2
78731;SHT31;68055;51.978;5.658;2023-03-21T04:58:27;13.4;67.4
78731;SHT31;68055;51.978;5.658;2023-03-21T05:00:56;13.4;67.5
78731;SHT31;68055;51.978;5.658;2023-03-21T05:03:28;13.4;67.7
78731;SHT31;68055;51.978;5.658;2023-03-21T05:06:00;13.4;67.9
78731;SHT31;68055;51.978;5.658;2023-03-21T05:08:30;13.4;67.8
78731;SHT31;68055;51.978;5.658;2023-03-21T05:10:59;13.4;67.7
78731;SHT31;68055;51.978;5.658;2023-03-21T05:13:29;13.4;67.6
78731;SHT31;68055;51.978;5.658;2023-03-21T05:15:59;13.3;67.6
78731;SHT31;68055;51.978;5.658;2023-03-21T05:18:28;13.3;67.7
78731;SHT31;68055;51.978;5.658;2023-03-21T05:21:01;13.3;67.8
78731;SHT31;68055;51.978;5.658;2023-03-21T05:23:30;13.3;67.9
78731;SHT31;68055;51.978;5.658;2023-03-21T05:26:06;13.3;67.6
78731;SHT31;68055;51.978;5.658;2023-03-21T05:28:38;13.3;67.8
78731;SHT31;68055;51.978;5.658;2023-03-21T05:31:08;13.2;67.9
78731;SHT31;68055;51.978;5.658;2023-03-21T05:33:42;13.2;67.9
78731;SHT31;68055;51.978;5.658;2023-03-21T05:36:13;13.2;67.9
78731;SHT31;68055;51.978;5.658;2023-03-21T05:38:43;13.2;68.3
78731;SHT31;68055;51.978;5.658;2023-03-21T05:41:14;13.2;68.2
78731;SHT31;68055;51.978;5.658;2023-03-21T05:43:44;13.2;68.1
78731;SHT31;68055;51.978;5.658;2023-03-21T05:46:16;13.2;68.2
78731;SHT31;68055;51.978;5.658;2023-03-21T05:48:45;13.2;68.1
78731;SHT31;68055;51.978;5.658;2023-03-21T05:51:15;13.2;68.0
78731;SHT31;68055;51.978;5.658;2023-03-21T05:53:44;13.2;67.8
78731;SHT31;68055;51.978;5.658;2023-03-21T05:56:15;13.2;68.2
78731;SHT31;68055;51.978;5.658;2023-03-21T05:58:44;13.2;68.3
78731;SHT31;68055;51.978;5.658;2023-03-21T06:01:14;13.2;67.8
78731;SHT31;68055;51.978;5.658;2023-03-21T06:03:43;13.2;68.1
78731;SHT31;68055;51.978;5.658;2023-03-21T06:06:13;13.2;68.2
78731;SHT31;68055;51.978;5.658;2023-03-21T06:08:42;13.2;68.0
78731;SHT31;68055;51.978;5.658;2023-03-21T06:11:21;13.1;67.8
78731;SHT31;68055;51.978;5.658;2023-03-21T06:13:52;13.1;67.8
78731;SHT31;68055;51.978;5.658;2023-03-21T06:16:21;13.1;67.7
78731;SHT31;68055;51.978;5.658;2023-03-21T06:18:51;13.1;67.8
78731;SHT31;68055;51.978;5.658;2023-03-21T06:21:21;13.1;67.8
78731;SHT31;68055;51.978;5.658;2023-03-21T06:23:51;13.1;67.9
78731;SHT31;68055;51.978;5.658;2023-03-21T06:26:20;13.1;67.7
78731;SHT31;68055;51.978;5.658;2023-03-21T06:28:51;13.1;67.7
78731;SHT31;68055;51.978;5.658;2023-03-21T06:31:21;13.1;68.0
78731;SHT31;68055;51.978;5.658;2023-03-21T06:33:52;13.1;67.7
78731;SHT31;68055;51.978;5.658;2023-03-21T06:36:22;13.1;68.1
78731;SHT31;68055;51.978;5.658;2023-03-21T06:38:51;13.1;67.8
78731;SHT31;68055;51.978;5.658;2023-03-21T06:41:21;13.1;68.1
78731;SHT31;68055;51.978;5.658;2023-03-21T06:43:50;13.1;67.7
78731;SHT31;68055;51.978;5.658;2023-03-21T06:46:20;13.1;67.7
78731;SHT31;68055;51.978;5.658;2023-03-21T06:48:50;13.1;68.0
78731;SHT31;68055;51.978;5.658;2023-03-21T06:51:19;13.1;67.8
78731;SHT31;68055;51.978;5.658;2023-03-21T06:53:49;13.1;67.4
78731;SHT31;68055;51.978;5.658;2023-03-21T06:56:18;13.1;67.5
78731;SHT31;68055;51.978;5.658;2023-03-21T06:58:48;13.1;67.5
78731;SHT31;68055;51.978;5.658;2023-03-21T07:01:20;13.1;67.4
78731;SHT31;68055;51.978;5.658;2023-03-21T07:03:49;13.1;67.6
78731;SHT31;68055;51.978;5.658;2023-03-21T07:06:20;13.2;67.7
78731;SHT31;68055;51.978;5.658;2023-03-21T07:08:49;13.2;67.6
78731;SHT31;68055;51.978;5.658;2023-03-21T07:11:20;13.2;67.7
78731;SHT31;68055;51.978;5.658;2023-03-21T07:13:51;13.2;67.9
78731;SHT31;68055;51.978;5.658;2023-03-21T07:16:21;13.4;67.8
78731;SHT31;68055;51.978;5.658;2023-03-21T07:18:54;13.5;67.1
78731;SHT31;68055;51.978;5.658;2023-03-21T07:21:24;13.6;66.4
78731;SHT31;68055;51.978;5.658;2023-03-21T07:23:54;13.7;66.0
78731;SHT31;68055;51.978;5.658;2023-03-21T07:26:23;13.6;66.0
78731;SHT31;68055;51.978;5.658;2023-03-21T07:28:53;13.6;66.2
78731;SHT31;68055;51.978;5.658;2023-03-21T07:31:22;13.6;66.2
78731;SHT31;68055;51.978;5.658;2023-03-21T07:33:53;13.6;66.2
78731;SHT31;68055;51.978;5.658;2023-03-21T07:36:23;13.5;66.5
78731;SHT31;68055;51.978;5.658;2023-03-21T07:38:53;13.5;66.8
78731;SHT31;68055;51.978;5.658;2023-03-21T07:41:22;13.5;66.8
78731;SHT31;68055;51.978;5.658;2023-03-21T07:43:52;13.4;67.2
78731;SHT31;68055;51.978;5.658;2023-03-21T07:46:21;13.4;67.5
78731;SHT31;68055;51.978;5.658;2023-03-21T07:48:52;13.4;68.2
78731;SHT31;68055;51.978;5.658;2023-03-21T07:51:22;13.4;68.4
78731;SHT31;68055;51.978;5.658;2023-03-21T07:53:52;13.4;68.9
78731;SHT31;68055;51.978;5.658;2023-03-21T07:56:21;13.3;69.1
78731;SHT31;68055;51.978;5.658;2023-03-21T07:58:51;13.3;69.0
78731;SHT31;68055;51.978;5.658;2023-03-21T08:01:21;13.3;69.3
78731;SHT31;68055;51.978;5.658;2023-03-21T08:03:51;13.3;69.2
78731;SHT31;68055;51.978;5.658;2023-03-21T08:06:21;13.3;69.5
78731;SHT31;68055;51.978;5.658;2023-03-21T08:08:51;13.3;69.1
78731;SHT31;68055;51.978;5.658;2023-03-21T08:11:20;13.2;69.4
78731;SHT31;68055;51.978;5.658;2023-03-21T08:13:51;13.2;69.5
78731;SHT31;68055;51.978;5.658;2023-03-21T08:16:22;13.2;69.4
78731;SHT31;68055;51.978;5.658;2023-03-21T08:18:52;13.2;69.3
78731;SHT31;68055;51.978;5.658;2023-03-21T08:21:21;13.2;69.3
78731;SHT31;68055;51.978;5.658;2023-03-21T08:23:52;13.2;69.3
78731;SHT31;68055;51.978;5.658;2023-03-21T08:26:22;13.2;69.7
78731;SHT31;68055;51.978;5.658;2023-03-21T08:28:52;13.2;69.8
78731;SHT31;68055;51.978;5.658;2023-03-21T08:31:22;13.2;69.2
78731;SHT31;68055;51.978;5.658;2023-03-21T08:33:52;13.2;69.8
78731;SHT31;68055;51.978;5.658;2023-03-21T08:36:23;13.2;70.2
78731;SHT31;68055;51.978;5.658;2023-03-21T08:38:55;13.3;69.6
78731;SHT31;68055;51.978;5.658;2023-03-21T08:41:30;13.3;69.3
78731;SHT31;68055;51.978;5.658;2023-03-21T08:44:00;13.3;69.3
78731;SHT31;68055;51.978;5.658;2023-03-21T08:46:30;13.3;69.6
78731;SHT31;68055;51.978;5.658;2023-03-21T08:48:59;13.4;69.9
78731;SHT31;68055;51.978;5.658;2023-03-21T08:51:29;13.4;69.7
78731;SHT31;68055;51.978;5.658;2023-03-21T08:54:01;13.4;70.2
78731;SHT31;68055;51.978;5.658;2023-03-21T08:59:02;13.4;70.3
78731;SHT31;68055;51.978;5.658;2023-03-21T09:01:31;13.4;69.5
78731;SHT31;68055;51.978;5.658;2023-03-21T09:04:01;13.4;69.1
78731;SHT31;68055;51.978;5.658;2023-03-21T09:06:34;13.5;69.1
78731;SHT31;68055;51.978;5.658;2023-03-21T09:09:03;13.5;69.6
78731;SHT31;68055;51.978;5.658;2023-03-21T09:11:35;13.5;69.6
78731;SHT31;68055;51.978;5.658;2023-03-21T09:14:05;13.5;69.6
78731;SHT31;68055;51.978;5.658;2023-03-21T09:16:34;13.6;69.7
78731;SHT31;68055;51.978;5.658;2023-03-21T09:19:04;13.6;69.7
78731;SHT31;68055;51.978;5.658;2023-03-21T09:21:35;13.6;69.6
78731;SHT31;68055;51.978;5.658;2023-03-21T09:24:06;13.7;70.2
78731;SHT31;68055;51.978;5.658;2023-03-21T09:26:36;13.7;69.9
78731;SHT31;68055;51.978;5.658;2023-03-21T09:29:05;13.8;69.7
78731;SHT31;68055;51.978;5.658;2023-03-21T09:31:35;13.8;70.3
78731;SHT31;68055;51.978;5.658;2023-03-21T09:34:08;13.8;69.6
78731;SHT31;68055;51.978;5.658;2023-03-21T09:36:40;13.9;70.3
78731;SHT31;68055;51.978;5.658;2023-03-21T09:39:11;13.9;69.2
78731;SHT31;68055;51.978;5.658;2023-03-21T09:42:02;14.0;69.0
78731;SHT31;68055;51.978;5.658;2023-03-21T09:44:50;14.0;69.0
78731;SHT31;68055;51.978;5.658;2023-03-21T09:47:25;14.0;69.0
78731;SHT31;68055;51.978;5.658;2023-03-21T09:50:00;14.1;68.7
78731;SHT31;68055;51.978;5.658;2023-03-21T09:52:40;14.1;69.0
78731;SHT31;68055;51.978;5.658;2023-03-21T09:55:17;14.1;68.3
78731;SHT31;68055;51.978;5.658;2023-03-21T09:57:52;14.2;67.9
78731;SHT31;68055;51.978;5.658;2023-03-21T10:00:29;14.2;67.4
78731;SHT31;68055;51.978;5.658;2023-03-21T10:03:04;14.3;68.2
78731;SHT31;68055;51.978;5.658;2023-03-21T10:05:39;14.3;67.5
78731;SHT31;68055;51.978;5.658;2023-03-21T10:08:17;14.4;66.9
78731;SHT31;68055;51.978;5.658;2023-03-21T10:10:51;14.4;67.0
78731;SHT31;68055;51.978;5.658;2023-03-21T10:13:27;14.4;67.2
78731;SHT31;68055;51.978;5.658;2023-03-21T10:16:00;14.4;67.1
78731;SHT31;68055;51.978;5.658;2023-03-21T10:18:32;14.4;66.8
78731;SHT31;68055;51.978;5.658;2023-03-21T10:21:04;14.5;66.9
78731;SHT31;68055;51.978;5.658;2023-03-21T10:23:33;14.5;66.8
78731;SHT31;68055;51.978;5.658;2023-03-21T10:26:06;14.5;66.6
78731;SHT31;68055;51.978;5.658;2023-03-21T10:28:39;14.5;66.3
78731;SHT31;68055;51.978;5.658;2023-03-21T10:31:14;14.5;66.1
78731;SHT31;68055;51.978;5.658;2023-03-21T10:33:48;14.6;66.1
78731;SHT31;68055;51.978;5.658;2023-03-21T10:36:21;14.6;66.1
78731;SHT31;68055;51.978;5.658;2023-03-21T10:38:58;14.6;65.4
78731;SHT31;68055;51.978;5.658;2023-03-21T10:41:29;14.6;65.8
78731;SHT31;68055;51.978;5.658;2023-03-21T10:44:09;14.7;65.7
78731;SHT31;68055;51.978;5.658;2023-03-21T10:46:52;14.7;65.7
78731;SHT31;68055;51.978;5.658;2023-03-21T10:49:22;14.7;65.8
78731;SHT31;68055;51.978;5.658;2023-03-21T10:51:56;14.8;65.7
78731;SHT31;68055;51.978;5.658;2023-03-21T10:54:28;14.8;65.9
78731;SHT31;68055;51.978;5.658;2023-03-21T10:57:03;14.9;65.6
78731;SHT31;68055;51.978;5.658;2023-03-21T10:59:39;15.0;65.0
78731;SHT31;68055;51.978;5.658;2023-03-21T11:02:18;15.1;64.3
78731;SHT31;68055;51.978;5.658;2023-03-21T11:04:50;15.1;63.9
78731;SHT31;68055;51.978;5.658;2023-03-21T11:07:21;15.2;64.0
78731;SHT31;68055;51.978;5.658;2023-03-21T11:09:56;15.2;63.7
78731;SHT31;68055;51.978;5.658;2023-03-21T11:12:33;15.3;63.1
78731;SHT31;68055;51.978;5.658;2023-03-21T11:15:26;15.3;62.8
78731;SHT31;68055;51.978;5.658;2023-03-21T11:17:57;15.4;62.7
78731;SHT31;68055;51.978;5.658;2023-03-21T11:20:31;15.4;62.9
78731;SHT31;68055;51.978;5.658;2023-03-21T11:23:02;15.4;62.3
78731;SHT31;68055;51.978;5.658;2023-03-21T11:25:36;15.4;62.7
78731;SHT31;68055;51.978;5.658;2023-03-21T11:28:11;15.5;62.7
78731;SHT31;68055;51.978;5.658;2023-03-21T11:30:51;15.5;62.1
78731;SHT31;68055;51.978;5.658;2023-03-21T11:33:25;15.5;62.0
78731;SHT31;68055;51.978;5.658;2023-03-21T11:36:02;15.6;62.2
78731;SHT31;68055;51.978;5.658;2023-03-21T11:38:36;15.6;61.8
78731;SHT31;68055;51.978;5.658;2023-03-21T11:41:07;15.6;61.9
78731;SHT31;68055;51.978;5.658;2023-03-21T11:43:38;15.7;62.5
78731;SHT31;68055;51.978;5.658;2023-03-21T11:46:12;15.7;61.9
78731;SHT31;68055;51.978;5.658;2023-03-21T11:48:45;15.8;60.8
78731;SHT31;68055;51.978;5.658;2023-03-21T11:51:25;15.8;61.0
78731;SHT31;68055;51.978;5.658;2023-03-21T11:54:04;15.8;61.3
78731;SHT31;68055;51.978;5.658;2023-03-21T11:56:38;15.9;61.0
78731;SHT31;68055;51.978;5.658;2023-03-21T11:59:27;15.9;61.0
78731;SHT31;68055;51.978;5.658;2023-03-21T12:02:35;16.0;61.8
78731;SHT31;68055;51.978;5.658;2023-03-21T12:05:09;16.0;60.8
78731;SHT31;68055;51.978;5.658;2023-03-21T12:07:52;16.1;60.2
78731;SHT31;68055;51.978;5.658;2023-03-21T12:10:34;16.1;60.4
78731;SHT31;68055;51.978;5.658;2023-03-21T12:13:20;16.2;60.0
78731;SHT31;68055;51.978;5.658;2023-03-21T12:16:00;16.2;60.2
78731;SHT31;68055;51.978;5.658;2023-03-21T12:18:51;16.3;59.3
78731;SHT31;68055;51.978;5.658;2023-03-21T12:21:32;16.3;58.8
78731;SHT31;68055;51.978;5.658;2023-03-21T12:24:09;16.3;58.6
78731;SHT31;68055;51.978;5.658;2023-03-21T12:26:50;16.4;58.5
78731;SHT31;68055;51.978;5.658;2023-03-21T12:29:35;16.4;58.6
78731;SHT31;68055;51.978;5.658;2023-03-21T12:32:20;16.5;58.3
78731;SHT31;68055;51.978;5.658;2023-03-21T12:35:18;16.5;57.9
78731;SHT31;68055;51.978;5.658;2023-03-21T12:37:59;16.5;58.4
78731;SHT31;68055;51.978;5.658;2023-03-21T12:40:40;16.6;58.1
78731;SHT31;68055;51.978;5.658;2023-03-21T12:43:27;16.8;57.5
78731;SHT31;68055;51.978;5.658;2023-03-21T12:46:01;16.9;57.7
78731;SHT31;68055;51.978;5.658;2023-03-21T12:48:40;17.0;56.9
78731;SHT31;68055;51.978;5.658;2023-03-21T12:51:14;17.1;56.1
78731;SHT31;68055;51.978;5.658;2023-03-21T12:53:50;17.1;55.7
78731;SHT31;68055;51.978;5.658;2023-03-21T12:56:28;17.1;55.1
78731;SHT31;68055;51.978;5.658;2023-03-21T12:59:07;17.1;55.0
78731;SHT31;68055;51.978;5.658;2023-03-21T13:01:39;17.1;55.0
78731;SHT31;68055;51.978;5.658;2023-03-21T13:04:33;17.2;55.4
78731;SHT31;68055;51.978;5.658;2023-03-21T13:07:07;17.2;54.6
78731;SHT31;68055;51.978;5.658;2023-03-21T13:09:40;17.2;54.1
78731;SHT31;68055;51.978;5.658;2023-03-21T13:12:23;17.1;54.1
78731;SHT31;68055;51.978;5.658;2023-03-21T13:15:07;17.1;53.9
78731;SHT31;68055;51.978;5.658;2023-03-21T13:17:47;17.1;54.6
78731;SHT31;68055;51.978;5.658;2023-03-21T13:20:25;17.0;54.7
78731;SHT31;68055;51.978;5.658;2023-03-21T13:22:59;17.0;54.6
78731;SHT31;68055;51.978;5.658;2023-03-21T13:25:30;17.0;54.8
78731;SHT31;68055;51.978;5.658;2023-03-21T13:28:03;17.0;55.6
78731;SHT31;68055;51.978;5.658;2023-03-21T13:30:33;17.0;55.9
78731;SHT31;68055;51.978;5.658;2023-03-21T13:33:11;17.0;56.6
78731;SHT31;68055;51.978;5.658;2023-03-21T13:35:43;17.0;55.2
78731;SHT31;68055;51.978;5.658;2023-03-21T13:38:18;17.0;55.7
78731;SHT31;68055;51.978;5.658;2023-03-21T13:40:50;17.0;55.3
78731;SHT31;68055;51.978;5.658;2023-03-21T13:43:34;17.1;55.1
78731;SHT31;68055;51.978;5.658;2023-03-21T13:46:10;17.1;55.0
78731;SHT31;68055;51.978;5.658;2023-03-21T13:48:57;17.1;54.4
78731;SHT31;68055;51.978;5.658;2023-03-21T13:51:53;17.1;55.1
78731;SHT31;68055;51.978;5.658;2023-03-21T13:54:28;17.2;54.2
78731;SHT31;68055;51.978;5.658;2023-03-21T13:57:04;17.2;54.1
78731;SHT31;68055;51.978;5.658;2023-03-21T13:59:41;17.2;52.8
78731;SHT31;68055;51.978;5.658;2023-03-21T14:02:52;17.2;51.6
78731;SHT31;68055;51.978;5.658;2023-03-21T14:05:26;17.3;53.0
78731;SHT31;68055;51.978;5.658;2023-03-21T14:08:00;17.3;53.4
78731;SHT31;68055;51.978;5.658;2023-03-21T14:10:34;17.4;52.1
78731;SHT31;68055;51.978;5.658;2023-03-21T14:13:10;17.4;51.5
78731;SHT31;68055;51.978;5.658;2023-03-21T14:15:46;17.5;49.9
78731;SHT31;68055;51.978;5.658;2023-03-21T14:18:20;17.5;50.3
78731;SHT31;68055;51.978;5.658;2023-03-21T14:20:54;17.6;49.8
78731;SHT31;68055;51.978;5.658;2023-03-21T14:23:25;17.6;50.3
78731;SHT31;68055;51.978;5.658;2023-03-21T14:25:55;17.6;50.0
78731;SHT31;68055;51.978;5.658;2023-03-21T14:28:26;17.7;50.6
78731;SHT31;68055;51.978;5.658;2023-03-21T14:31:00;17.7;50.8
78731;SHT31;68055;51.978;5.658;2023-03-21T14:33:34;17.8;51.0
78731;SHT31;68055;51.978;5.658;2023-03-21T14:36:14;17.8;51.2
78731;SHT31;68055;51.978;5.658;2023-03-21T14:38:56;17.8;51.0
78731;SHT31;68055;51.978;5.658;2023-03-21T14:41:28;17.9;50.2
78731;SHT31;68055;51.978;5.658;2023-03-21T14:44:19;17.9;49.6
78731;SHT31;68055;51.978;5.658;2023-03-21T14:47:00;17.9;49.3
78731;SHT31;68055;51.978;5.658;2023-03-21T14:49:32;17.9;49.0
78731;SHT31;68055;51.978;5.658;2023-03-21T14:52:06;17.9;49.4
78731;SHT31;68055;51.978;5.658;2023-03-21T14:54:39;17.9;49.6
78731;SHT31;68055;51.978;5.658;2023-03-21T14:57:12;17.9;49.7
78731;SHT31;68055;51.978;5.658;2023-03-21T14:59:43;17.9;49.9
78731;SHT31;68055;51.978;5.658;2023-03-21T15:02:20;17.9;50.2
78731;SHT31;68055;51.978;5.658;2023-03-21T15:04:53;17.9;49.8
78731;SHT31;68055;51.978;5.658;2023-03-21T15:07:26;18.0;50.0
78731;SHT31;68055;51.978;5.658;2023-03-21T15:09:58;18.0;50.1
78731;SHT31;68055;51.978;5.658;2023-03-21T15:12:30;18.0;50.2
78731;SHT31;68055;51.978;5.658;2023-03-21T15:15:01;18.0;49.6
78731;SHT31;68055;51.978;5.658;2023-03-21T15:17:32;17.9;49.4
78731;SHT31;68055;51.978;5.658;2023-03-21T15:20:02;17.9;49.4
78731;SHT31;68055;51.978;5.658;2023-03-21T15:22:39;17.9;49.7
78731;SHT31;68055;51.978;5.658;2023-03-21T15:25:15;17.9;49.8
78731;SHT31;68055;51.978;5.658;2023-03-21T15:27:48;17.9;50.4
78731;SHT31;68055;51.978;5.658;2023-03-21T15:30:22;17.9;50.6
78731;SHT31;68055;51.978;5.658;2023-03-21T15:32:53;17.9;50.7
78731;SHT31;68055;51.978;5.658;2023-03-21T15:35:26;17.8;50.5
78731;SHT31;68055;51.978;5.658;2023-03-21T15:37:58;17.8;50.8
78731;SHT31;68055;51.978;5.658;2023-03-21T15:40:30;17.8;50.9
78731;SHT31;68055;51.978;5.658;2023-03-21T15:43:14;17.8;50.8
78731;SHT31;68055;51.978;5.658;2023-03-21T15:45:48;17.8;51.7
78731;SHT31;68055;51.978;5.658;2023-03-21T15:48:25;17.8;51.3
78731;SHT31;68055;51.978;5.658;2023-03-21T15:51:01;17.8;51.4
78731;SHT31;68055;51.978;5.658;2023-03-21T15:53:33;17.8;51.9
78731;SHT31;68055;51.978;5.658;2023-03-21T15:56:04;17.7;51.7
78731;SHT31;68055;51.978;5.658;2023-03-21T15:58:46;17.7;51.4
78731;SHT31;68055;51.978;5.658;2023-03-21T16:01:18;17.7;52.3
78731;SHT31;68055;51.978;5.658;2023-03-21T16:03:56;17.7;52.5
78731;SHT31;68055;51.978;5.658;2023-03-21T16:06:31;17.7;52.6
78731;SHT31;68055;51.978;5.658;2023-03-21T16:09:11;17.7;52.6
78731;SHT31;68055;51.978;5.658;2023-03-21T16:11:49;17.7;52.2
78731;SHT31;68055;51.978;5.658;2023-03-21T16:14:21;17.7;52.6
78731;SHT31;68055;51.978;5.658;2023-03-21T16:16:54;17.7;52.5
78731;SHT31;68055;51.978;5.658;2023-03-21T16:19:27;17.7;51.9
78731;SHT31;68055;51.978;5.658;2023-03-21T16:21:57;17.7;51.8
78731;SHT31;68055;51.978;5.658;2023-03-21T16:24:26;17.7;51.7
78731;SHT31;68055;51.978;5.658;2023-03-21T16:26:56;17.6;52.5
78731;SHT31;68055;51.978;5.658;2023-03-21T16:29:27;17.6;51.9
78731;SHT31;68055;51.978;5.658;2023-03-21T16:31:58;17.6;52.3
78731;SHT31;68055;51.978;5.658;2023-03-21T16:34:32;17.5;52.7
78731;SHT31;68055;51.978;5.658;2023-03-21T16:37:03;17.5;53.3
78731;SHT31;68055;51.978;5.658;2023-03-21T16:39:33;17.4;53.0
78731;SHT31;68055;51.978;5.658;2023-03-21T16:42:03;17.4;52.8
78731;SHT31;68055;51.978;5.658;2023-03-21T16:44:32;17.4;52.9
78731;SHT31;68055;51.978;5.658;2023-03-21T16:47:11;17.3;54.6
78731;SHT31;68055;51.978;5.658;2023-03-21T16:49:42;17.3;55.2
78731;SHT31;68055;51.978;5.658;2023-03-21T16:52:13;17.2;56.0